Fırtına ile karışık, muhtemelen bulutlu
Fırtına ile karışık, muhtemelen bulutlu
Fırtına ile karışık, muhtemelen bulutlu
Hafif yağmurlu, muhtemelen fırtınalı
Hafif yağmurlu, muhtemelen fırtınalı
Hafif yağmurlu, muhtemelen fırtınalı
Hafif yağmurlu, muhtemelen fırtınalı
Bulutlu
Parçalı ve az yüksek bulutlu
(°C)
16°
16°
16°
16°
16°
16°
16°
16°
16°
16°
15°
15°
15°
15°
15°
15°
15°
15°
(°C)
17°
16°
16°
16°
16°
16°
16°
15°
16°
DKD
KD
KKD
KB
KB
BGB
BGB
BKB
BKB
(km/h)
5-13
5-14
4-15
4-17
5-26
5-21
5-22
4-20
4-20
(mm)
0
0
0
1.4
0.2
1.1
2.4
0
0
(%)
0
0
0
25
25
25
25
16
17

Güneşin açısı

/ -77.5°
sun-icon
UV 2
07:58
17:51
Şişkin ay evresi (137°)
15:05
04:35

Buenos Aires (SABE) için METAR

Zaman Koşullar Sıcaklık/
Çiy noktası
Rüzgar Görünürlük Hava Bulutlar Basınç Değiştir Ham
MVFR 16°C / 15°C 200º 2kt 8000m shallow Fog Clear 1007 No Significant change SABE 190300Z 20002KT 8000 MIFG NSC 16/15 Q1007 NOSIG
VFR 16°C / 15°C variable 0kt 9700m shallow Fog Clear 1008 No Significant change SABE 190200Z 00000KT 9999 MIFG NSC 16/15 Q1008 NOSIG
VFR 16°C / 16°C 2kt 9700m - Few Clouds 2300ft
Broken Clouds 6000ft
1008 No Significant change SABE 190100Z VRB02KT 9999 FEW023 BKN060 16/16 Q1008 NOSIG
VFR 17°C / 16°C 70º variable 040º to 100º 4kt 9700m - Scattered Clouds 1700ft
Broken Clouds 6500ft
1008 No Significant change SABE 190000Z 07004KT 040V100 9999 SCT017 BKN065 17/16 Q1008 NOSIG
VFR 17°C / 15°C 2kt 9700m - Scattered Clouds 1800ft 1007 No Significant change SABE 182300Z VRB02KT 9999 SCT018 17/15 Q1007 NOSIG
MVFR 17°C / 16°C 60º variable 040º to 120º 3kt 9700m - Broken Clouds 1900ft 1007 No Significant change SABE 182200Z 06003KT 040V120 9999 BKN019 17/16 Q1007 NOSIG
VFR 17°C / 15°C 2kt 9700m - Scattered Clouds 2100ft 1006 No Significant change SABE 182100Z VRB02KT 9999 SCT021 17/15 Q1006 NOSIG
MVFR 17°C / 15°C 40º variable 350º to 070º 3kt 9700m - Broken Clouds 1800ft
Scattered Clouds 10000ft
1006 No Significant change SABE 182000Z 04003KT 350V070 9999 BKN018 SCT100 17/15 Q1006 NOSIG
VFR 17°C / 15°C 70º variable 050º to 110º 3kt 9700m - Scattered Clouds 2000ft
Few Clouds 5000ft
Broken Clouds 10000ft
1006 No Significant change SABE 181900Z 07003KT 050V110 9999 SCT020 FEW050 BKN100 17/15 Q1006 NOSIG
VFR 17°C / 16°C 60º variable 030º to 110º 3kt 9700m - Scattered Clouds 2000ft
Scattered Clouds 2300ft
Scattered Clouds 10000ft
1006 No Significant change SABE 181800Z 06003KT 030V110 9999 SCT020 SCT023 SCT100 17/16 Q1006 NOSIG
MVFR 17°C / 15°C 360º variable 330º to 040º 4kt 9700m - Scattered Clouds 1400ft
Overcast 2500ft
1006 No Significant change SABE 181700Z 36004KT 330V040 9999 SCT014 OVC025 17/15 Q1006 NOSIG
MVFR 17°C / 15°C 350º variable 320º to 020º 4kt 9700m - Overcast 1200ft 1006 No Significant change SABE 181628Z 35004KT 320V020 9999 OVC012 17/15 Q1006 NOSIG
IFR 17°C / 15°C 340º variable 260º to 010º 5kt 9700m - Overcast 800ft 1007 No Significant change SABE 181600Z 34005KT 260V010 9999 OVC008 17/15 Q1007 NOSIG
IFR 16°C / 15°C 340º variable 310º to 010º 6kt 9700m - Overcast 800ft 1007 No Significant change SABE 181500Z 34006KT 310V010 9999 OVC008 16/15 Q1007 NOSIG
IFR 16°C / 15°C 330º 7kt 9700m - Overcast 700ft 1008 No Significant change SABE 181400Z 33007KT 9999 OVC007 16/15 Q1008 NOSIG
IFR 16°C / 15°C 330º 7kt 9700m - Overcast 600ft 1008 No Significant change SABE 181300Z 33007KT 9999 OVC006 16/15 Q1008 NOSIG
IFR 16°C / 14°C 350º 8kt 9700m - Overcast 700ft 1008 No Significant change SABE 181200Z 35008KT 9999 OVC007 16/14 Q1008 NOSIG
IFR 16°C / 14°C 10º variable 350º to 050º 9kt 9700m - Overcast 700ft 1007 No Significant change SABE 181100Z 01009KT 350V050 9999 OVC007 16/14 Q1007 NOSIG
VFR 15°C / 14°C 20º 10kt 9000m Light Drizzle 0.20mm precipitation Overcast 4900ft
Few Clouds 500ft
1007 No Significant change SABE 181000Z 02010KT 9000 -DZ OVC049 FEW005 15/14 Q1007 NOSIG
IFR 16°C / 14°C 10º variable 350º to 050º 8kt 9000m Light Drizzle 0.20mm precipitation Overcast 800ft 1008 No Significant change SABE 180900Z 01008KT 350V050 9000 -DZ OVC008 16/14 Q1008 NOSIG
IFR 16°C / 14°C 10º 10kt 9700m - Overcast 900ft 1009 Becoming: Broken Clouds 800ft. Overcast 1500ft. SABE 180800Z 01010KT 9999 OVC009 16/14 Q1009 BECMG BKN008 OVC015
VFR 16°C / 14°C 20º 8kt 9700m - Scattered Clouds 1000ft
Overcast 5000ft
1009 No Significant change SABE 180700Z 02008KT 9999 SCT010 OVC050 16/14 Q1009 NOSIG
VFR 16°C / 14°C 360º 6kt 9700m - Scattered Clouds 1100ft
Overcast 3600ft
1009 No Significant change SABE 180600Z 36006KT 9999 SCT011 OVC036 16/14 Q1009 NOSIG
VFR 16°C / 14°C 40º 6kt 9700m - Overcast 3600ft 1009 No Significant change SABE 180500Z 04006KT 9999 OVC036 16/14 Q1009 NOSIG

MVFR

16°C / 15°C

[Daha fazla]
Rüzgar 200º 2kt
Görünürlük 8000m
Hava shallow Fog
Bulutlar Clear
Basınç 1007
Değiştir No Significant change
Ham SABE 190300Z 20002KT 8000 MIFG NSC 16/15 Q1007 NOSIG

VFR

16°C / 15°C

[Daha fazla]
Rüzgar variable 0kt
Görünürlük 9700m
Hava shallow Fog
Bulutlar Clear
Basınç 1008
Değiştir No Significant change
Ham SABE 190200Z 00000KT 9999 MIFG NSC 16/15 Q1008 NOSIG

VFR

16°C / 16°C

[Daha fazla]
Rüzgar 2kt
Görünürlük 9700m
Hava -
Bulutlar Few Clouds 2300ft
Broken Clouds 6000ft
Basınç 1008
Değiştir No Significant change
Ham SABE 190100Z VRB02KT 9999 FEW023 BKN060 16/16 Q1008 NOSIG

VFR

17°C / 16°C

[Daha fazla]
Rüzgar 70º variable 040º to 100º 4kt
Görünürlük 9700m
Hava -
Bulutlar Scattered Clouds 1700ft
Broken Clouds 6500ft
Basınç 1008
Değiştir No Significant change
Ham SABE 190000Z 07004KT 040V100 9999 SCT017 BKN065 17/16 Q1008 NOSIG

VFR

17°C / 15°C

[Daha fazla]
Rüzgar 2kt
Görünürlük 9700m
Hava -
Bulutlar Scattered Clouds 1800ft
Basınç 1007
Değiştir No Significant change
Ham SABE 182300Z VRB02KT 9999 SCT018 17/15 Q1007 NOSIG

MVFR

17°C / 16°C

[Daha fazla]
Rüzgar 60º variable 040º to 120º 3kt
Görünürlük 9700m
Hava -
Bulutlar Broken Clouds 1900ft
Basınç 1007
Değiştir No Significant change
Ham SABE 182200Z 06003KT 040V120 9999 BKN019 17/16 Q1007 NOSIG

VFR

17°C / 15°C

[Daha fazla]
Rüzgar 2kt
Görünürlük 9700m
Hava -
Bulutlar Scattered Clouds 2100ft
Basınç 1006
Değiştir No Significant change
Ham SABE 182100Z VRB02KT 9999 SCT021 17/15 Q1006 NOSIG

MVFR

17°C / 15°C

[Daha fazla]
Rüzgar 40º variable 350º to 070º 3kt
Görünürlük 9700m
Hava -
Bulutlar Broken Clouds 1800ft
Scattered Clouds 10000ft
Basınç 1006
Değiştir No Significant change
Ham SABE 182000Z 04003KT 350V070 9999 BKN018 SCT100 17/15 Q1006 NOSIG

VFR

17°C / 15°C

[Daha fazla]
Rüzgar 70º variable 050º to 110º 3kt
Görünürlük 9700m
Hava -
Bulutlar Scattered Clouds 2000ft
Few Clouds 5000ft
Broken Clouds 10000ft
Basınç 1006
Değiştir No Significant change
Ham SABE 181900Z 07003KT 050V110 9999 SCT020 FEW050 BKN100 17/15 Q1006 NOSIG

VFR

17°C / 16°C

[Daha fazla]
Rüzgar 60º variable 030º to 110º 3kt
Görünürlük 9700m
Hava -
Bulutlar Scattered Clouds 2000ft
Scattered Clouds 2300ft
Scattered Clouds 10000ft
Basınç 1006
Değiştir No Significant change
Ham SABE 181800Z 06003KT 030V110 9999 SCT020 SCT023 SCT100 17/16 Q1006 NOSIG

MVFR

17°C / 15°C

[Daha fazla]
Rüzgar 360º variable 330º to 040º 4kt
Görünürlük 9700m
Hava -
Bulutlar Scattered Clouds 1400ft
Overcast 2500ft
Basınç 1006
Değiştir No Significant change
Ham SABE 181700Z 36004KT 330V040 9999 SCT014 OVC025 17/15 Q1006 NOSIG

MVFR

17°C / 15°C

[Daha fazla]
Rüzgar 350º variable 320º to 020º 4kt
Görünürlük 9700m
Hava -
Bulutlar Overcast 1200ft
Basınç 1006
Değiştir No Significant change
Ham SABE 181628Z 35004KT 320V020 9999 OVC012 17/15 Q1006 NOSIG

IFR

17°C / 15°C

[Daha fazla]
Rüzgar 340º variable 260º to 010º 5kt
Görünürlük 9700m
Hava -
Bulutlar Overcast 800ft
Basınç 1007
Değiştir No Significant change
Ham SABE 181600Z 34005KT 260V010 9999 OVC008 17/15 Q1007 NOSIG

IFR

16°C / 15°C

[Daha fazla]
Rüzgar 340º variable 310º to 010º 6kt
Görünürlük 9700m
Hava -
Bulutlar Overcast 800ft
Basınç 1007
Değiştir No Significant change
Ham SABE 181500Z 34006KT 310V010 9999 OVC008 16/15 Q1007 NOSIG

IFR

16°C / 15°C

[Daha fazla]
Rüzgar 330º 7kt
Görünürlük 9700m
Hava -
Bulutlar Overcast 700ft
Basınç 1008
Değiştir No Significant change
Ham SABE 181400Z 33007KT 9999 OVC007 16/15 Q1008 NOSIG

IFR

16°C / 15°C

[Daha fazla]
Rüzgar 330º 7kt
Görünürlük 9700m
Hava -
Bulutlar Overcast 600ft
Basınç 1008
Değiştir No Significant change
Ham SABE 181300Z 33007KT 9999 OVC006 16/15 Q1008 NOSIG

IFR

16°C / 14°C

[Daha fazla]
Rüzgar 350º 8kt
Görünürlük 9700m
Hava -
Bulutlar Overcast 700ft
Basınç 1008
Değiştir No Significant change
Ham SABE 181200Z 35008KT 9999 OVC007 16/14 Q1008 NOSIG

IFR

16°C / 14°C

[Daha fazla]
Rüzgar 10º variable 350º to 050º 9kt
Görünürlük 9700m
Hava -
Bulutlar Overcast 700ft
Basınç 1007
Değiştir No Significant change
Ham SABE 181100Z 01009KT 350V050 9999 OVC007 16/14 Q1007 NOSIG

VFR

15°C / 14°C

[Daha fazla]
Rüzgar 20º 10kt
Görünürlük 9000m
Hava Light Drizzle 0.20mm precipitation
Bulutlar Overcast 4900ft
Few Clouds 500ft
Basınç 1007
Değiştir No Significant change
Ham SABE 181000Z 02010KT 9000 -DZ OVC049 FEW005 15/14 Q1007 NOSIG

IFR

16°C / 14°C

[Daha fazla]
Rüzgar 10º variable 350º to 050º 8kt
Görünürlük 9000m
Hava Light Drizzle 0.20mm precipitation
Bulutlar Overcast 800ft
Basınç 1008
Değiştir No Significant change
Ham SABE 180900Z 01008KT 350V050 9000 -DZ OVC008 16/14 Q1008 NOSIG

IFR

16°C / 14°C

[Daha fazla]
Rüzgar 10º 10kt
Görünürlük 9700m
Hava -
Bulutlar Overcast 900ft
Basınç 1009
Değiştir Becoming: Broken Clouds 800ft. Overcast 1500ft.
Ham SABE 180800Z 01010KT 9999 OVC009 16/14 Q1009 BECMG BKN008 OVC015

VFR

16°C / 14°C

[Daha fazla]
Rüzgar 20º 8kt
Görünürlük 9700m
Hava -
Bulutlar Scattered Clouds 1000ft
Overcast 5000ft
Basınç 1009
Değiştir No Significant change
Ham SABE 180700Z 02008KT 9999 SCT010 OVC050 16/14 Q1009 NOSIG

VFR

16°C / 14°C

[Daha fazla]
Rüzgar 360º 6kt
Görünürlük 9700m
Hava -
Bulutlar Scattered Clouds 1100ft
Overcast 3600ft
Basınç 1009
Değiştir No Significant change
Ham SABE 180600Z 36006KT 9999 SCT011 OVC036 16/14 Q1009 NOSIG

VFR

16°C / 14°C

[Daha fazla]
Rüzgar 40º 6kt
Görünürlük 9700m
Hava -
Bulutlar Overcast 3600ft
Basınç 1009
Değiştir No Significant change
Ham SABE 180500Z 04006KT 9999 OVC036 16/14 Q1009 NOSIG

Buenos Aires (SABE) için TAF

From till


Maximum Temperature 18ºC on . Minimum Temperature 15ºC on .
From till Wind 3kt. Visibility 9700m. Scattered Clouds 1500ft.
With 30% probability, Temporarly from till Visibility 5000m. Light Rain . Scattered Clouds 2000ft. Broken Clouds 4000ft.
Becoming from till
Becoming from till

Ham: TAF SABE 182300Z 1900/1924 VRB03KT 9999 SCT015 TX18/1918Z TN15/1911Z PROB30 TEMPO 1909/1913 5000 -RA SCT020 BKN040 BECMG 1912/1915 20015KT CAVOK BECMG 1920/1922 18010KT

Buenos Aires için Radar

Çise
Hafif
Orta
Ağır
Çok ağır
Dolu

Konum işaretleyicisi Buenos Aires üzerine yerleştirilir. Turuncu çarpılar yıldırımı göstermektedir. Veriler nowcast.de tarafından sağlanmıştır (ABD, Avrupa ve Avustralya'da erişimi mevcuttur). Çiseleyen yağmur veya hafif kar yağışı radarda görünmeyebilir. Yağış yoğunluğu turkuazdan kırmızıya kadar değişen renklerle kodlanmıştır.

Buenos Aires için şu anki uydu görüntüleri, Arjantin

Konum işaretleyici Buenos Aires üzerine yerleştirilir. [Daha fazla]

Gerçek zamanlı uydu görüntüsü gündüz süresince görülür ışığı gece süresince kızılötesi ışınım ile birleştirir. Gece kızılötesi ışınım sıcaklık farklarını algılayabildiğinden dolayı görüntü karanlık değildir. Ancak düşük bulutları ve sisi yer sıcaklığından ayırmak zordur ve bu nedenle gece boyunca neredeyse görünmez olabilirler. Avrupa için Meteosat uydu görüntüleri gerçek zamanlı olarak her 5 dakikada bir güncellenir. GOES-16/GOES-17 (Kuzey ve Güney Amerika) ve Himawari (Asya) görüntüleri her 10 dakikada bir güncellenir.

Yağış radar ve uydulardan tahmin edilir. Uydulardan elde edilen yağış tahminleri geceleri gündüze göre daha az doğrudur.

© 2024 meteoblue, NOAA Satellites GOES-16 and EUMETSAT. nowcast tarafından sağlanan şimşek verileri.

En başa git
×
Merhaba,
bir reklam engelleyici kullanıyormuşsunuz gibi görünüyor.

Reklam, ücretsiz web sitemizi benzersiz ayrıntı ve doğrulukla sürdürmek için çok önemlidir.

Lütfen reklam engelleyicinizde www.meteoblue.com beyaz listesini beyaz listeye alın veya ürünlerimizden birini satın almayı düşünün:

Zaten bir aboneliğiniz var mı?
O halde lütfen giriş yapın.